Pagina principale
METAR-TAF:

METAR-TAF

Aeroporti :

Wallis, Francia

latitudine: 13-14S, longitudine: 176-10W, altezza: 23 m

METAR: mancante

Ora: 12:57 (00:57 UTC)

Previsione

Il bollettino è stato emesso 1 ora e 57 minuti fa, alle 23:00 UTC
Previsione valida dal 16 alle 00 UTC al 16 alle 24 UTC
Vento 8 kt da est/sud-est
Visibilità 10 km o più
Nubi sparse ad un'altezza di 2000 ft
Nuvoloso ad un'altezza di 4000 ft
Temporaneamente
dal 16 alle 06 UTC al 16 alle 24 UTC
Visibilità: 4000 m
Nubi sparse ad un'altezza di 2500 ft, Cumulo congesto.
rovesci di pioggia
Probabilità 40% :
Temporaneamente
dal 16 alle 12 UTC al 16 alle 24 UTC
Visibilità: 2500 m
Nuvoloso ad un'altezza di 1200 ft
Nubi sparse ad un'altezza di 2500 ft, Cumulonembo.
rovesci di pioggia

TAF: NLWW 152300Z 1600/1624 12008KT 9999 SCT020 BKN040 TEMPO 1606/1624 4000 SHRA SCT025TCU PROB40 TEMPO 1612/1624 2500 SHRA BKN012 SCT025CB

Osservazioni e previsioni meteorologiche di più di 4000 aeroporti (messaggi METAR e TAF).

Le stazioni disponibili sono rappresentate dai dischi gialli e rossi sulla carta.

Puntare il mouse per vedere il nome della stazione.

Clicca sopra per visualizzare le osservazioni e previsioni meteorologiche.

Per cambiare la mappa : fare clic sui pulsanti verdi con una croce nera per ingrandire, il pulsante verde con un trattino per diminuire, o sulla freccia verde per le mappe adiacenti.


METAR-TAF: